TNCMTNCM

Guest
Details From TNCM - St Maarten - Princess Juliana Intl
To TNCM - St Maarten - Princess Juliana Intl
Flight Number -
Tags Standard
Created
Modified
Stats Distance 23 nm / 43 km
Max Altitude 3,000 ft / 914 m
Waypoints 6
Social Downloads 20
Likes 0
Share VATSIM

Download

Looking for another format? Having issues loading an existing format? Contact us
Advertisement - Login to hide

Notes

None

Route

+18.041_-063.103 PJM90 PJM07 PJM02 +18.037_-063.130 TNCM

ID Type Via Altitude Latitude Longitude Leg Dist Tot Dist Heading (true) Name
O +18.041_-063.103 LATLON - 0 ft / 0 m 18.04100˚ -63.10300˚ - 0 nm - -
PJM90 FIX - 3,000 ft / 914 m 18.12665˚ -63.24578˚ 9 nm 9 nm 302° / 302° -
PJM07 FIX - 1,500 ft / 457 m 18.02582˚ -63.24012˚ 6 nm 15 nm 177° / 177° -
PJM02 FIX - 500 ft / 152 m 18.03461˚ -63.15310˚ 4 nm 20 nm 84° / 84° -
+18.037_-063.130 LATLON - 110 ft / 34 m 18.03700˚ -63.13000˚ 1 nm 22 nm 84° / 84° -
O TNCM APT - 10 ft / 3 m 18.04089˚ -63.10897˚ 1 nm 23 nm 79° / 79° St Maarten - Princess Juliana Intl

Altitude Profile

Advertisement - Login to hide

TNCM

Details ICAO TNCM (SXM)
Name St Maarten - Princess Juliana Intl
Region Caribbean Netherlands, Aruba, Curaçao, Sint Maarten
Timezone Unknown (UTC+0.0)
Stats Elevation 12 ft / 4 m (AMSL)
Location 18.040889° -63.108974°
Runways 1
Magnetic Variation 14.337° W

METAR

TNCM 220600Z 08009KT 050V130 9999 BKN018 26/22 Q1016 A3000 RERA

Decode

TAF

TAF TNCM 220540Z 2206/2306 09012KT P6SM VCSH SCT020

Decode

Departure Runways

ID Width Length Bearing (true) Bearing (mag) Surface Threshold Offset Overrun Length
10 148 ft / 45 m 7,464 ft / 2,275 m 81.43° 95.77° Asphalt 0 ft / 0 m 151 ft / 46 m
28 148 ft / 45 m 7,464 ft / 2,275 m 261.44° 275.78° Asphalt 397 ft / 121 m 0 ft / 0 m

TNCM

Details ICAO TNCM (SXM)
Name St Maarten - Princess Juliana Intl
Region Caribbean Netherlands, Aruba, Curaçao, Sint Maarten
Timezone Unknown (UTC+0.0)
Stats Elevation 12 ft / 4 m (AMSL)
Location 18.040889° -63.108974°
Runways 1
Magnetic Variation 14.337° W

METAR

TNCM 220600Z 08009KT 050V130 9999 BKN018 26/22 Q1016 A3000 RERA

Decode

TAF

TAF TNCM 220540Z 2206/2306 09012KT P6SM VCSH SCT020

Decode

Destination Runways

ID Width Length Bearing (true) Bearing (mag) Surface Threshold Offset Overrun Length
10 148 ft / 45 m 7,464 ft / 2,275 m 81.43° 95.77° Asphalt 0 ft / 0 m 151 ft / 46 m
28 148 ft / 45 m 7,464 ft / 2,275 m 261.44° 275.78° Asphalt 397 ft / 121 m 0 ft / 0 m

Popular Alternatives